aviador You're here:

KNSE Decoded Metar

MILTON in FL, USA
Report Time2018-05-26 14:56:00
UTC Time2018-05-26 15:42:33
Flight Rules vfr VFR
WindVRB at 04 kt
Visibility9999 m
Phenomena:N/A
Clouds:Few 026 Hf
Expected CloudBase > 2,400 ft AGL from Temp-Dew spread
CeilingNone
Temp28°C (ISA +13)
Dew Point22°C (70% RH)
Heat Index30.7°C
QNH1014 hPa
Density Alt2,057 ft
Elevation200 ft
Report Wrong Elevation
Raw Report
KNSE 261456Z AUTO VRB04KT 10SM FEW026 28/22 A2993 RMK AO2 SLP121
T02830222 50002 $=

Extra information for KNSE:More info

Metar Taf Metar & Taf Last 4 Metars F.Rules Stats Wind Profile Meteogram Temp Stats Airport Information Weather charts Add Link Nearby VenuesMetar ALERT Operation Metar Decoded Social comments

AIRNAV info for KNSE